Time,TemperatureF,DewpointF,PressureIn,WindDirection,WindDirectionDegrees,WindSpeedMPH,WindSpeedGustMPH,Humidity,HourlyPrecipIn,Conditions,Clouds,dailyrainin,SolarRadiationWatts/m^2,SoftwareType,DateUTC
2013-02-09 00:00:00,59.8,55.3,30.02,ESE,102,2.0,4.0,85,0.00,CLR,SCT,0.00,0.0,WeatherDisplay:10.37,2013-02-09 10:00:00,
2013-02-09 00:10:00,59.6,55.1,30.03,East,100,3.0,6.0,85,0.00,CLR,SCT,0.00,0.0,WeatherDisplay:10.37,2013-02-09 10:10:00,
2013-02-09 00:20:00,59.6,54.8,30.02,ESE,103,1.0,5.0,84,0.00,CLR,SCT,0.00,0.0,WeatherDisplay:10.37,2013-02-09 10:20:00,
2013-02-09 00:30:00,59.6,54.8,30.02,ESE,103,5.0,8.0,84,0.00,CLR,SCT,0.00,0.0,WeatherDisplay:10.37,2013-02-09 10:30:00,
2013-02-09 00:40:00,60.1,54.6,30.02,East,95,3.0,7.0,82,0.00,CLR,SCT,0.00,0.0,WeatherDisplay:10.37,2013-02-09 10:40:00,
2013-02-09 00:50:00,60.5,55.3,30.01,ESE,109,3.0,7.0,83,0.00,CLR,SCT,0.00,0.0,WeatherDisplay:10.37,2013-02-09 10:50:00,
2013-02-09 01:00:00,60.7,55.5,30.01,ESE,105,2.0,7.0,83,0.00,CLR,SCT,0.00,0.0,WeatherDisplay:10.37,2013-02-09 11:00:00,
2013-02-09 01:10:00,60.5,54.6,30.01,East,95,1.0,4.0,81,0.00,CLR,SCT,0.00,0.0,WeatherDisplay:10.37,2013-02-09 11:10:00,
2013-02-09 01:20:00,60.3,54.1,30.01,ESE,106,2.0,6.0,80,0.00,CLR,SCT,0.00,0.0,WeatherDisplay:10.37,2013-02-09 11:20:00,
2013-02-09 01:30:00,60.1,54.6,30.01,ESE,103,1.0,4.0,82,0.00,CLR,SCT,0.00,0.0,WeatherDisplay:10.37,2013-02-09 11:30:00,
2013-02-09 01:40:00,59.6,54.4,30.01,ESE,103,0.0,1.0,83,0.00,CLR,SCT,0.00,0.0,WeatherDisplay:10.37,2013-02-09 11:40:00,
2013-02-09 01:50:00,59.1,54.6,30.01,ESE,103,0.0,3.0,85,0.00,CLR,SCT,0.00,0.0,WeatherDisplay:10.37,2013-02-09 11:50:00,
2013-02-09 02:00:00,58.6,54.4,30.01,ESE,108,2.0,4.0,86,0.00,CLR,SCT,0.00,0.0,WeatherDisplay:10.37,2013-02-09 12:00:00,
2013-02-09 02:10:00,58.5,54.0,30.01,ESE,108,0.0,2.0,85,0.00,CLR,SCT,0.00,0.0,WeatherDisplay:10.37,2013-02-09 12:10:00,
2013-02-09 02:20:00,58.1,53.6,30.01,East,98,0.0,4.0,85,0.00,CLR,SCT,0.00,0.0,WeatherDisplay:10.37,2013-02-09 12:20:00,
2013-02-09 02:30:00,57.6,53.5,30.01,East,97,0.0,4.0,86,0.00,CLR,SCT,0.00,0.0,WeatherDisplay:10.37,2013-02-09 12:30:00,
2013-02-09 02:40:00,57.3,53.5,30.00,East,98,0.0,3.0,87,0.00,CLR,SCT,0.00,0.0,WeatherDisplay:10.37,2013-02-09 12:40:00,
2013-02-09 02:50:00,57.2,53.3,30.00,East,97,1.0,4.0,87,0.00,CLR,SCT,0.00,0.0,WeatherDisplay:10.37,2013-02-09 12:50:00,
2013-02-09 03:00:00,56.9,52.8,30.00,East,98,1.0,4.0,86,0.00,CLR,SCT,0.00,0.0,WeatherDisplay:10.37,2013-02-09 13:00:00,
2013-02-09 03:10:00,56.8,52.3,30.00,ESE,104,2.0,4.0,85,0.00,CLR,SCT,0.00,0.0,WeatherDisplay:10.37,2013-02-09 13:10:00,
2013-02-09 03:20:00,56.7,52.2,30.00,ESE,106,1.0,4.0,85,0.00,CLR,SCT,0.00,0.0,WeatherDisplay:10.37,2013-02-09 13:20:00,
2013-02-09 03:30:00,56.7,52.2,30.00,ESE,121,2.0,6.0,85,0.00,CLR,SCT,0.00,0.0,WeatherDisplay:10.37,2013-02-09 13:30:00,
2013-02-09 03:40:00,56.9,53.0,30.00,SE,128,3.0,6.0,87,0.00,CLR,SCT,0.00,0.0,WeatherDisplay:10.37,2013-02-09 13:40:00,
2013-02-09 03:50:00,57.3,53.8,30.00,SE,124,2.0,4.0,88,0.00,CLR,SCT,0.00,0.0,WeatherDisplay:10.37,2013-02-09 13:50:00,
2013-02-09 04:00:00,57.4,53.6,30.00,East,86,0.0,5.0,87,0.00,CLR,SCT,0.00,0.0,WeatherDisplay:10.37,2013-02-09 14:00:00,
2013-02-09 04:10:00,57.2,53.4,30.00,East,86,0.0,2.0,87,0.00,CLR,SCT,0.00,0.0,WeatherDisplay:10.37,2013-02-09 14:10:00,
2013-02-09 04:20:00,56.8,53.0,30.00,East,86,1.0,3.0,87,0.00,CLR,SCT,0.00,0.0,WeatherDisplay:10.37,2013-02-09 14:20:00,
2013-02-09 04:30:00,56.5,52.7,30.00,East,99,2.0,3.0,87,0.00,CLR,SCT,0.00,0.0,WeatherDisplay:10.37,2013-02-09 14:30:00,
2013-02-09 04:40:00,56.5,53.0,30.00,ESE,104,0.0,4.0,88,0.00,CLR,SCT,0.00,0.0,WeatherDisplay:10.37,2013-02-09 14:40:00,
2013-02-09 04:50:00,56.4,52.9,30.00,ESE,107,2.0,6.0,88,0.00,CLR,SCT,0.00,0.0,WeatherDisplay:10.37,2013-02-09 14:50:00,
2013-02-09 05:00:00,56.4,52.3,30.00,ESE,111,0.0,6.0,86,0.00,CLR,SCT,0.00,0.0,WeatherDisplay:10.37,2013-02-09 15:00:00,
2013-02-09 05:10:00,56.4,52.6,30.00,ESE,111,1.0,3.0,87,0.00,CLR,SCT,0.00,0.0,WeatherDisplay:10.37,2013-02-09 15:10:00,
2013-02-09 05:20:00,56.3,52.2,30.01,East,95,2.0,4.0,86,0.00,CLR,SCT,0.00,0.0,WeatherDisplay:10.37,2013-02-09 15:20:00,
2013-02-09 05:30:00,56.2,51.8,30.01,East,92,2.0,4.0,85,0.00,CLR,SCT,0.00,0.0,WeatherDisplay:10.37,2013-02-09 15:30:00,
2013-02-09 05:40:00,56.3,51.2,30.01,East,89,2.0,4.0,83,0.00,CLR,SCT,0.00,0.0,WeatherDisplay:10.37,2013-02-09 15:40:00,
2013-02-09 05:50:00,56.6,51.5,30.02,East,98,1.0,5.0,83,0.00,CLR,SCT,0.00,0.0,WeatherDisplay:10.37,2013-02-09 15:50:00,
2013-02-09 06:00:00,56.6,51.8,30.02,ESE,106,3.0,5.0,84,0.00,CLR,SCT,0.00,0.0,WeatherDisplay:10.37,2013-02-09 16:00:00,
2013-02-09 06:10:00,57.1,53.3,30.02,ESE,105,3.0,8.0,87,0.00,CLR,SCT,0.00,0.0,WeatherDisplay:10.37,2013-02-09 16:10:00,
2013-02-09 06:20:00,58.1,53.3,30.02,ESE,103,5.0,6.0,84,0.00,CLR,SCT,0.00,0.0,WeatherDisplay:10.37,2013-02-09 16:20:00,
2013-02-09 06:30:00,58.6,53.1,30.03,East,101,2.0,6.0,82,0.00,CLR,SCT,0.00,0.0,WeatherDisplay:10.37,2013-02-09 16:30:00,
2013-02-09 06:40:00,58.6,53.1,30.03,ESE,105,0.0,5.0,82,0.00,CLR,SCT,0.00,0.0,WeatherDisplay:10.37,2013-02-09 16:40:00,
2013-02-09 06:50:00,58.3,52.8,30.03,East,97,3.0,6.0,82,0.00,CLR,SCT,0.00,0.0,WeatherDisplay:10.37,2013-02-09 16:50:00,
2013-02-09 07:00:00,58.1,53.9,30.04,ESE,103,0.0,5.0,86,0.00,CLR,SCT,0.00,0.0,WeatherDisplay:10.37,2013-02-09 17:00:00,
2013-02-09 07:10:00,58.0,54.5,30.04,East,95,0.0,4.0,88,0.00,CLR,SCT,0.00,7.3,WeatherDisplay:10.37,2013-02-09 17:10:00,
2013-02-09 07:20:00,58.2,55.8,30.05,ENE,77,2.0,5.0,92,0.00,CLR,SCT,0.00,10.8,WeatherDisplay:10.37,2013-02-09 17:20:00,
2013-02-09 07:30:00,59.6,57.8,30.05,ENE,76,5.0,10.0,94,0.00,CLR,SCT,0.00,24.0,WeatherDisplay:10.37,2013-02-09 17:30:00,
2013-02-09 07:40:00,61.0,58.3,30.05,ENE,72,7.0,10.0,91,0.00,CLR,SCT,0.00,24.9,WeatherDisplay:10.37,2013-02-09 17:40:00,
2013-02-09 07:50:00,62.2,58.6,30.05,ENE,73,3.0,9.0,88,0.00,FEW,SCT,0.00,24.9,WeatherDisplay:10.37,2013-02-09 17:50:00,
2013-02-09 08:00:00,62.8,59.2,30.05,ENE,65,3.0,8.0,88,0.00,FEW,SCT,0.00,35.7,WeatherDisplay:10.37,2013-02-09 18:00:00,
2013-02-09 08:10:00,63.3,59.6,30.05,ENE,68,3.0,7.0,88,0.00,FEW,SCT,0.00,39.6,WeatherDisplay:10.37,2013-02-09 18:10:00,
2013-02-09 08:20:00,64.4,60.2,30.05,East,79,7.0,12.0,86,0.00,FEW,SCT,0.00,56.2,WeatherDisplay:10.37,2013-02-09 18:20:00,
2013-02-09 08:30:00,65.4,60.5,30.06,East,81,8.0,14.0,84,0.00,FEW,SCT,0.00,278.2,WeatherDisplay:10.37,2013-02-09 18:30:00,
2013-02-09 08:40:00,67.3,61.2,30.06,East,95,7.0,12.0,81,0.00,SCT,SCT,0.00,295.8,WeatherDisplay:10.37,2013-02-09 18:40:00,
2013-02-09 08:50:00,68.6,61.5,30.06,East,88,7.0,15.0,78,0.00,SCT,SCT,0.00,313.0,WeatherDisplay:10.37,2013-02-09 18:50:00,
2013-02-09 09:00:00,69.3,61.8,30.05,ENE,71,6.0,12.0,77,0.00,SCT,SCT,0.00,321.3,WeatherDisplay:10.37,2013-02-09 19:00:00,
2013-02-09 09:10:00,69.8,62.3,30.05,ENE,69,7.0,13.0,77,0.00,SCT,SCT,0.00,333.0,WeatherDisplay:10.37,2013-02-09 19:10:00,
2013-02-09 09:20:00,70.2,61.9,30.05,ENE,67,8.0,13.0,75,0.00,SCT,SCT,0.00,352.1,WeatherDisplay:10.37,2013-02-09 19:20:00,
2013-02-09 09:30:00,70.4,63.2,30.05,NE,49,8.0,13.0,78,0.00,SCT,SCT,0.00,359.4,WeatherDisplay:10.37,2013-02-09 19:30:00,
2013-02-09 09:40:00,70.5,62.9,30.06,ENE,61,7.0,17.0,77,0.00,SCT,SCT,0.00,130.1,WeatherDisplay:10.37,2013-02-09 19:40:00,
2013-02-09 09:50:00,69.3,62.9,30.06,NE,46,10.0,18.0,80,0.00,SCT,SCT,0.00,206.4,WeatherDisplay:10.37,2013-02-09 19:50:00,
2013-02-09 10:00:00,68.2,62.5,30.07,NE,56,7.0,20.0,82,0.00,SCT,SCT,0.00,139.9,WeatherDisplay:10.37,2013-02-09 20:00:00,
2013-02-09 10:10:00,67.5,61.5,30.07,ENE,76,6.0,14.0,81,0.00,SCT,SCT,0.00,167.2,WeatherDisplay:10.37,2013-02-09 20:10:00,
2013-02-09 10:20:00,67.5,62.8,30.07,ENE,73,5.0,12.0,85,0.00,SCT,SCT,0.00,554.0,WeatherDisplay:10.37,2013-02-09 20:20:00,
2013-02-09 10:30:00,68.7,63.3,30.07,ENE,73,7.0,15.0,83,0.00,SCT,SCT,0.00,163.3,WeatherDisplay:10.37,2013-02-09 20:30:00,
2013-02-09 10:40:00,67.4,63.1,30.07,ENE,70,7.0,15.0,86,0.01,RA,SCT,0.01,181.4,WeatherDisplay:10.37,2013-02-09 20:40:00,
2013-02-09 10:50:00,67.2,63.9,30.07,ENE,68,7.0,12.0,89,0.00,SCT,SCT,0.02,311.5,WeatherDisplay:10.37,2013-02-09 20:50:00,
2013-02-09 11:00:00,68.0,64.3,30.07,ENE,64,5.0,14.0,88,0.01,RA,SCT,0.02,145.7,WeatherDisplay:10.37,2013-02-09 21:00:00,
2013-02-09 11:10:00,67.6,63.9,30.07,NE,56,7.0,12.0,88,0.00,SCT,SCT,0.02,202.0,WeatherDisplay:10.37,2013-02-09 21:10:00,
2013-02-09 11:20:00,67.5,64.1,30.07,ENE,64,3.0,14.0,89,0.00,SCT,SCT,0.02,155.0,WeatherDisplay:10.37,2013-02-09 21:20:00,
2013-02-09 11:30:00,67.4,64.0,30.06,ENE,78,2.0,13.0,89,0.00,SCT,SCT,0.02,197.1,WeatherDisplay:10.37,2013-02-09 21:30:00,
2013-02-09 11:40:00,69.0,65.2,30.06,ENE,64,3.0,15.0,88,0.00,SCT,SCT,0.02,139.9,WeatherDisplay:10.37,2013-02-09 21:40:00,
2013-02-09 11:50:00,68.9,64.2,30.06,ENE,68,3.0,14.0,85,0.00,SCT,SCT,0.02,150.6,WeatherDisplay:10.37,2013-02-09 21:50:00,
2013-02-09 12:00:00,68.2,64.2,30.05,ENE,71,8.0,14.0,87,0.00,SCT,SCT,0.02,299.8,WeatherDisplay:10.37,2013-02-09 22:00:00,
2013-02-09 12:10:00,68.3,63.9,30.05,ENE,78,8.0,14.0,86,0.00,SCT,SCT,0.02,122.7,WeatherDisplay:10.37,2013-02-09 22:10:00,
2013-02-09 12:20:00,67.4,63.7,30.04,ENE,67,6.0,12.0,88,0.02,RA,SCT,0.04,170.7,WeatherDisplay:10.37,2013-02-09 22:20:00,
2013-02-09 12:30:00,67.4,64.0,30.04,ENE,67,7.0,13.0,89,0.00,SCT,SCT,0.04,226.9,WeatherDisplay:10.37,2013-02-09 22:30:00,
2013-02-09 12:40:00,68.2,64.9,30.03,ENE,60,8.0,15.0,89,0.00,SCT,SCT,0.04,226.9,WeatherDisplay:10.37,2013-02-09 22:40:00,
2013-02-09 12:50:00,69.2,65.2,30.02,ENE,71,9.0,14.0,87,0.00,SCT,SCT,0.04,149.1,WeatherDisplay:10.37,2013-02-09 22:50:00,
2013-02-09 13:00:00,68.9,64.9,30.02,ENE,70,7.0,15.0,87,0.00,SCT,SCT,0.04,210.3,WeatherDisplay:10.37,2013-02-09 23:00:00,
2013-02-09 13:10:00,68.6,64.2,30.02,ENE,68,6.0,20.0,86,0.00,SCT,SCT,0.04,265.0,WeatherDisplay:10.37,2013-02-09 23:10:00,
2013-02-09 13:20:00,68.2,64.2,30.01,ENE,74,8.0,15.0,87,0.00,SCT,SCT,0.04,273.4,WeatherDisplay:10.37,2013-02-09 23:20:00,
2013-02-09 13:30:00,68.1,64.4,30.01,ENE,72,8.0,14.0,88,0.00,SCT,SCT,0.04,233.7,WeatherDisplay:10.37,2013-02-09 23:30:00,
2013-02-09 13:40:00,67.6,64.2,30.00,ENE,67,7.0,14.0,89,0.01,RA,SCT,0.05,396.1,WeatherDisplay:10.37,2013-02-09 23:40:00,
2013-02-09 13:50:00,68.3,65.2,30.00,ENE,65,10.0,14.0,90,0.00,SCT,SCT,0.05,535.0,WeatherDisplay:10.37,2013-02-09 23:50:00,
2013-02-09 14:00:00,68.9,64.5,30.00,ENE,60,9.0,20.0,86,0.00,SCT,SCT,0.05,243.5,WeatherDisplay:10.37,2013-02-10 00:00:00,
2013-02-09 14:10:00,69.9,65.1,29.99,ENE,70,10.0,20.0,85,0.00,SCT,SCT,0.05,102.7,WeatherDisplay:10.37,2013-02-10 00:10:00,
2013-02-09 14:20:00,69.8,63.7,29.99,ENE,78,9.0,18.0,81,0.00,SCT,SCT,0.05,91.9,WeatherDisplay:10.37,2013-02-10 00:20:00,
2013-02-09 14:30:00,69.1,63.4,29.99,ENE,78,9.0,15.0,82,0.00,SCT,SCT,0.05,428.4,WeatherDisplay:10.37,2013-02-10 00:30:00,
2013-02-09 14:40:00,70.6,63.4,29.99,East,80,12.0,18.0,78,0.00,SCT,SCT,0.05,440.6,WeatherDisplay:10.37,2013-02-10 00:40:00,
2013-02-09 14:50:00,71.5,63.9,29.98,ENE,64,10.0,18.0,77,0.00,SCT,SCT,0.05,365.3,WeatherDisplay:10.37,2013-02-10 00:50:00,
2013-02-09 15:00:00,71.7,63.4,29.98,East,81,8.0,14.0,75,0.00,SCT,SCT,0.05,361.9,WeatherDisplay:10.37,2013-02-10 01:00:00,
2013-02-09 15:10:00,72.0,64.0,29.98,East,81,7.0,16.0,76,0.00,SCT,SCT,0.05,343.8,WeatherDisplay:10.37,2013-02-10 01:10:00,
2013-02-09 15:20:00,71.7,64.5,29.97,ENE,78,10.0,18.0,78,0.00,SCT,SCT,0.05,338.9,WeatherDisplay:10.37,2013-02-10 01:20:00,
2013-02-09 15:30:00,71.6,63.6,29.97,East,80,13.0,17.0,76,0.00,SCT,SCT,0.05,325.7,WeatherDisplay:10.37,2013-02-10 01:30:00,
2013-02-09 15:40:00,71.9,63.1,29.97,East,79,9.0,17.0,74,0.00,SCT,SCT,0.05,317.4,WeatherDisplay:10.37,2013-02-10 01:40:00,
2013-02-09 15:50:00,72.1,63.3,29.98,East,81,7.0,20.0,74,0.00,SCT,SCT,0.05,313.0,WeatherDisplay:10.37,2013-02-10 01:50:00,
2013-02-09 16:00:00,71.7,62.6,29.98,ENE,71,10.0,21.0,73,0.00,SCT,SCT,0.05,313.0,WeatherDisplay:10.37,2013-02-10 02:00:00,
2013-02-09 16:10:00,71.5,62.4,29.98,ENE,65,10.0,21.0,73,0.00,FEW,SCT,0.05,327.1,WeatherDisplay:10.37,2013-02-10 02:10:00,
2013-02-09 16:20:00,71.5,63.2,29.98,ENE,73,7.0,20.0,75,0.00,FEW,SCT,0.05,303.2,WeatherDisplay:10.37,2013-02-10 02:20:00,
2013-02-09 16:30:00,71.4,62.7,29.98,ENE,72,9.0,22.0,74,0.00,FEW,SCT,0.05,291.4,WeatherDisplay:10.37,2013-02-10 02:30:00,
2013-02-09 16:40:00,71.9,62.7,29.98,East,90,10.0,20.0,73,0.00,FEW,SCT,0.05,279.2,WeatherDisplay:10.37,2013-02-10 02:40:00,
2013-02-09 16:50:00,71.4,63.1,29.98,ENE,76,8.0,14.0,75,0.00,FEW,SCT,0.05,262.6,WeatherDisplay:10.37,2013-02-10 02:50:00,
2013-02-09 17:00:00,70.6,63.1,29.98,ENE,66,9.0,18.0,77,0.00,FEW,SCT,0.05,251.8,WeatherDisplay:10.37,2013-02-10 03:00:00,
2013-02-09 17:10:00,70.2,62.3,29.98,ENE,70,10.0,18.0,76,0.00,SCT,SCT,0.05,235.2,WeatherDisplay:10.37,2013-02-10 03:10:00,
2013-02-09 17:20:00,69.7,61.8,29.99,ENE,70,9.0,20.0,76,0.00,SCT,SCT,0.05,216.1,WeatherDisplay:10.37,2013-02-10 03:20:00,
2013-02-09 17:30:00,68.7,61.6,30.00,ENE,65,8.0,15.0,78,0.00,SCT,SCT,0.05,200.5,WeatherDisplay:10.37,2013-02-10 03:30:00,
2013-02-09 17:40:00,68.0,61.6,30.00,NE,54,9.0,20.0,80,0.00,SCT,SCT,0.05,178.0,WeatherDisplay:10.37,2013-02-10 03:40:00,
2013-02-09 17:50:00,67.3,61.6,30.00,NE,56,8.0,17.0,82,0.00,SCT,SCT,0.05,35.7,WeatherDisplay:10.37,2013-02-10 03:50:00,
2013-02-09 18:00:00,66.5,60.8,30.01,ENE,64,10.0,22.0,82,0.00,SCT,SCT,0.05,24.9,WeatherDisplay:10.37,2013-02-10 04:00:00,
2013-02-09 18:10:00,66.1,60.8,30.02,ENE,63,9.0,17.0,83,0.00,FEW,SCT,0.05,60.6,WeatherDisplay:10.37,2013-02-10 04:10:00,
2013-02-09 18:20:00,65.7,61.1,30.03,ENE,71,8.0,16.0,85,0.00,FEW,SCT,0.05,0.0,WeatherDisplay:10.37,2013-02-10 04:20:00,
2013-02-09 18:30:00,65.3,61.0,30.03,ENE,74,5.0,12.0,86,0.00,FEW,SCT,0.05,0.0,WeatherDisplay:10.37,2013-02-10 04:30:00,
2013-02-09 18:40:00,64.9,60.3,30.03,ENE,73,7.0,12.0,85,0.00,FEW,SCT,0.05,0.0,WeatherDisplay:10.37,2013-02-10 04:40:00,
2013-02-09 18:50:00,64.7,60.4,30.03,ENE,64,7.0,15.0,86,0.00,FEW,SCT,0.05,0.0,WeatherDisplay:10.37,2013-02-10 04:50:00,
2013-02-09 19:00:00,64.6,58.6,30.03,East,83,5.0,15.0,81,0.00,FEW,SCT,0.05,0.0,WeatherDisplay:10.37,2013-02-10 05:00:00,
2013-02-09 19:10:00,64.7,59.0,30.04,ENE,75,5.0,12.0,82,0.00,FEW,SCT,0.05,0.0,WeatherDisplay:10.37,2013-02-10 05:10:00,
2013-02-09 19:20:00,64.5,59.2,30.04,ENE,69,5.0,10.0,83,0.00,FEW,SCT,0.05,0.0,WeatherDisplay:10.37,2013-02-10 05:20:00,
2013-02-09 19:30:00,64.2,59.6,30.05,ENE,62,2.0,9.0,85,0.00,FEW,SCT,0.05,0.0,WeatherDisplay:10.37,2013-02-10 05:30:00,
2013-02-09 19:40:00,63.9,59.0,30.06,ENE,74,7.0,13.0,84,0.00,FEW,SCT,0.05,0.0,WeatherDisplay:10.37,2013-02-10 05:40:00,
2013-02-09 19:50:00,64.1,58.8,30.06,ENE,75,7.0,16.0,83,0.00,FEW,SCT,0.05,0.0,WeatherDisplay:10.37,2013-02-10 05:50:00,
2013-02-09 20:00:00,64.3,59.0,30.06,East,81,5.0,14.0,83,0.00,FEW,SCT,0.05,0.0,WeatherDisplay:10.37,2013-02-10 06:00:00,
2013-02-09 20:10:00,64.1,60.2,30.06,NE,50,6.0,15.0,87,0.00,BKN,SCT,0.05,0.0,WeatherDisplay:10.37,2013-02-10 06:10:00,
2013-02-09 20:20:00,63.6,59.0,30.06,ENE,68,3.0,13.0,85,0.00,BKN,SCT,0.05,0.0,WeatherDisplay:10.37,2013-02-10 06:20:00,
2013-02-09 20:30:00,63.8,59.6,30.07,ENE,71,7.0,13.0,86,0.00,BKN,SCT,0.05,0.0,WeatherDisplay:10.37,2013-02-10 06:30:00,
2013-02-09 20:40:00,63.6,59.7,30.07,NE,52,7.0,13.0,87,0.01,-RA,SCT,0.06,0.0,WeatherDisplay:10.37,2013-02-10 06:40:00,
2013-02-09 20:50:00,63.3,60.0,30.07,ENE,59,6.0,18.0,89,0.00,-RA,SCT,0.06,0.0,WeatherDisplay:10.37,2013-02-10 06:50:00,
2013-02-09 21:00:00,63.2,59.9,30.08,ENE,64,7.0,17.0,89,0.00,-RA,SCT,0.06,0.0,WeatherDisplay:10.37,2013-02-10 07:00:00,
2013-02-09 21:10:00,63.1,59.8,30.08,ENE,72,7.0,14.0,89,0.00,SCT,SCT,0.06,0.0,WeatherDisplay:10.37,2013-02-10 07:10:00,
2013-02-09 21:20:00,63.1,60.1,30.08,NE,55,6.0,13.0,90,0.00,SCT,SCT,0.06,0.0,WeatherDisplay:10.37,2013-02-10 07:20:00,
2013-02-09 21:30:00,63.0,60.1,30.09,ENE,74,7.0,12.0,90,0.00,SCT,SCT,0.06,0.0,WeatherDisplay:10.37,2013-02-10 07:30:00,
2013-02-09 21:40:00,63.1,60.1,30.09,ENE,78,8.0,14.0,90,0.01,RA,SCT,0.07,0.0,WeatherDisplay:10.37,2013-02-10 07:40:00,
2013-02-09 21:50:00,62.9,59.3,30.09,ENE,64,8.0,16.0,88,0.00,SCT,SCT,0.07,0.0,WeatherDisplay:10.37,2013-02-10 07:50:00,
2013-02-09 22:00:00,62.9,59.9,30.09,ENE,62,6.0,14.0,90,0.00,SCT,SCT,0.07,0.0,WeatherDisplay:10.37,2013-02-10 08:00:00,
2013-02-09 22:10:00,62.8,60.1,30.09,ENE,66,5.0,9.0,91,0.00,FEW,SCT,0.07,0.0,WeatherDisplay:10.37,2013-02-10 08:10:00,
2013-02-09 22:20:00,62.8,60.1,30.09,NE,54,5.0,10.0,91,0.01,RA,SCT,0.08,0.0,WeatherDisplay:10.37,2013-02-10 08:20:00,
2013-02-09 22:30:00,62.8,60.4,30.09,ENE,67,5.0,9.0,92,0.03,RA,SCT,0.11,0.0,WeatherDisplay:10.37,2013-02-10 08:30:00,
2013-02-09 22:40:00,62.8,60.1,30.09,East,83,7.0,15.0,91,0.09,RA,SCT,0.20,0.0,WeatherDisplay:10.37,2013-02-10 08:40:00,
2013-02-09 22:50:00,62.7,60.0,30.09,ENE,72,5.0,13.0,91,0.02,RA,SCT,0.22,0.0,WeatherDisplay:10.37,2013-02-10 08:50:00,
2013-02-09 23:00:00,62.4,59.7,30.09,East,86,7.0,15.0,91,0.00,FEW,SCT,0.22,0.0,WeatherDisplay:10.37,2013-02-10 09:00:00,
2013-02-09 23:10:00,62.3,60.0,30.08,East,82,6.0,12.0,92,0.00,FEW,SCT,0.22,0.0,WeatherDisplay:10.37,2013-02-10 09:10:00,
2013-02-09 23:20:00,62.6,60.5,30.08,East,80,3.0,14.0,93,0.02,RA,SCT,0.24,0.0,WeatherDisplay:10.37,2013-02-10 09:20:00,
2013-02-09 23:30:00,62.8,60.7,30.08,ENE,67,6.0,12.0,93,0.01,RA,SCT,0.25,0.0,WeatherDisplay:10.37,2013-02-10 09:30:00,
2013-02-09 23:40:00,63.0,60.9,30.07,ENE,58,7.0,16.0,93,0.00,BKN,SCT,0.25,0.0,WeatherDisplay:10.37,2013-02-10 09:40:00,
2013-02-09 23:50:00,63.0,60.9,30.07,ENE,75,10.0,20.0,93,0.01,RA,SCT,0.26,0.0,WeatherDisplay:10.37,2013-02-10 09:50:00,